首页
METAR-TAF:

METAR-TAF

机场 :

Wekweeti, 西北特區, 加拿大

纬度: 64-11-27N, 经度: 114-04-36W, 海拔: 368米

当前天气观测

该预报发布于57分钟前的21:00 UTC
风速11节,风向西北,有时为19节阵风
温度 -6°C
湿度 86%
气压 1024 hPa
能見度: 14.5公里
多云层高于1400英尺
阴天层高于2000英尺

METAR: CYWE 212100Z AUTO 31011G19KT 9SM BKN014 OVC020 M06/M08 A3023 RMK SLP274

时间: 15:57 (21:57 UTC)

预报

该预报发布于3小时和17分钟前的18:40 UTC
预报有效从21日的 19点(UTC)到 22日的 01点(UTC)
风速10节,风向西北
能見度: 10公里
散云层高于1200英尺
阴天层高于10000英尺
短暂存在
从 21日的 19点(UTC)到 22日的 01点(UTC)
能見度: 6.4公里
多云层高于1200英尺
阴天层高于10000英尺
小雪

TAF: CYWE 211840Z 2119/2201 31010KT P6SM SCT012 OVC100 TEMPO 2119/2201 4SM -SN BKN012 OVC100 RMK FCST BASED ON AUTO OBS. NXT FCST WILL BE ISSUED AT 221245Z

超过4000个机场的气象观测和天气预报(METAR&TAF报告)。

可查询的气象台以黄色和红色小点在地图上表示。

将鼠标移到小点上方,可查看气象台名称。

然后点击查看天气观测和预报。

如需切换地图:点击带黑十字的绿色按钮放大地图;点击带横线的绿色按钮缩小地图;或者点击绿色箭头查看邻近地区的地图。


METAR-TAF: